Time;durP1;ratioP1;P1;durP2;ratioP2;P2;SDS_P1;SDS_P2;PMS_P1;PMS_P2;Temp;Humidity;BMP_temperature;BMP_pressure;BME280_temperature;BME280_humidity;BME280_pressure;Samples;Min_cycle;Max_cycle;Signal;HPM_P1;HPM_P2
2024/02/09 00:02:07;;;;;;;;;;;;;;;2.74;90.50;99283.06;4213290;28;19931;-89
2024/02/09 00:04:28;;;;;;;;;;;;;;;2.73;90.47;99276.91;4192635;28;19935;-87
2024/02/09 00:06:50;;;;;;;;;;;;;;;2.74;90.54;99269.72;4213846;28;19935;-90
2024/02/09 00:09:13;;;;;;;;;;;;;;;2.73;90.60;99274.22;4199346;28;19948;-92
2024/02/09 00:11:36;;;;;;;;;;;;;;;2.72;90.36;99266.38;4196871;28;19967;-89
2024/02/09 00:13:56;;;;;;;;;;;;;;;2.71;90.33;99270.88;4192213;28;20011;-88
2024/02/09 00:16:19;;;;;;;;;;;;;;;2.69;90.45;99260.38;4196565;28;20633;-90
2024/02/09 00:18:39;;;;;;;;;;;;;;;2.69;90.49;99262.22;4212889;28;20008;-88
2024/02/09 00:21:00;;;;;;;;;;;;;;;2.70;90.70;99254.03;4197523;28;19950;-86
2024/02/09 00:23:21;;;;;;;;;;;;;;;2.71;90.41;99254.88;4212745;28;19954;-88
2024/02/09 00:25:42;;;;;;;;;;;;;;;2.68;90.60;99255.19;4213340;28;19935;-88
2024/02/09 00:28:03;;;;;;;;;;;;;;;2.67;90.71;99254.38;4211349;28;19934;-89
2024/02/09 00:30:24;;;;;;;;;;;;;;;2.68;90.75;99247.19;4197503;28;20001;-90
2024/02/09 00:32:46;;;;;;;;;;;;;;;2.68;90.71;99255.19;4197517;28;19995;-88
2024/02/09 00:35:07;;;;;;;;;;;;;;;2.68;90.75;99247.19;4198493;28;19971;-87
2024/02/09 00:37:28;;;;;;;;;;;;;;;2.67;90.77;99248.22;4183190;28;19984;-87
2024/02/09 00:39:49;;;;;;;;;;;;;;;2.68;90.99;99250.72;4213064;28;19935;-85
2024/02/09 00:42:13;;;;;;;;;;;;;;;2.68;91.03;99234.72;4183223;28;19967;-86
2024/02/09 00:44:34;;;;;;;;;;;;;;;2.69;90.54;99230.22;4197945;28;19943;-86
2024/02/09 00:46:54;;;;;;;;;;;;;;;2.67;90.84;99237.56;4212590;28;19974;-88
2024/02/09 00:49:18;;;;;;;;;;;;;;;2.67;90.91;99237.56;4212817;28;19978;-88
2024/02/09 00:51:41;;;;;;;;;;;;;;;2.68;90.73;99231.19;4212392;28;20107;-87
2024/02/09 00:54:02;;;;;;;;;;;;;;;2.64;90.86;99227.22;4199053;28;19935;-88
2024/02/09 00:56:23;;;;;;;;;;;;;;;2.68;90.52;99226.72;4185466;28;19975;-86
2024/02/09 00:58:44;;;;;;;;;;;;;;;2.67;90.55;99227.72;4213909;28;19978;-85
2024/02/09 01:01:05;;;;;;;;;;;;;;;2.66;90.81;99217.22;4213468;28;19975;-89
2024/02/09 01:03:25;;;;;;;;;;;;;;;2.66;90.65;99219.88;4214663;28;19931;-87
2024/02/09 01:05:50;;;;;;;;;;;;;;;2.66;90.61;99223.38;4199709;28;19951;-86
2024/02/09 01:08:11;;;;;;;;;;;;;;;2.65;90.59;99219.06;4213573;28;19931;-89
2024/02/09 01:10:32;;;;;;;;;;;;;;;2.66;90.68;99226.03;4186501;28;19970;-88
2024/02/09 02:45:12;;;;;;;;;;;;;;;2.61;91.58;99084.44;4193545;28;20587;-88
2024/02/09 02:47:32;;;;;;;;;;;;;;;2.63;91.67;99081.59;4199942;28;20060;-89
2024/02/09 03:05:45;;;;;;;;;;;;;;;2.62;91.64;99053.28;4197250;28;20307;-87
2024/02/09 03:08:07;;;;;;;;;;;;;;;2.61;91.99;99048.94;4184094;28;20429;-88
2024/02/09 03:10:30;;;;;;;;;;;;;;;2.61;91.69;99047.09;4182356;28;19974;-88
2024/02/09 03:12:50;;;;;;;;;;;;;;;2.62;91.72;99047.97;4212548;28;19938;-88
2024/02/09 03:15:11;;;;;;;;;;;;;;;2.62;92.05;99032.78;4197918;28;19935;-90
2024/02/09 03:17:32;;;;;;;;;;;;;;;2.61;91.82;99025.78;4201403;28;19931;-84
2024/02/09 03:20:00;;;;;;;;;;;;;;;2.61;92.10;99030.28;4200582;28;20026;-87
2024/02/09 03:22:21;;;;;;;;;;;;;;;2.61;91.85;99020.44;4191138;28;19935;-85
2024/02/09 03:24:41;;;;;;;;;;;;;;;2.62;91.81;99026.63;4213067;28;19978;-84
2024/02/09 03:27:03;;;;;;;;;;;;;;;2.63;91.86;99018.47;4212036;28;19989;-84
2024/02/09 03:29:24;;;;;;;;;;;;;;;2.62;91.77;99015.97;4211607;28;19930;-86
2024/02/09 03:31:45;;;;;;;;;;;;;;;2.61;91.91;99025.78;4196075;28;19943;-83
2024/02/09 03:34:05;;;;;;;;;;;;;;;2.61;91.83;99023.13;4212893;28;19930;-85
2024/02/09 03:36:26;;;;;;;;;;;;;;;2.62;92.07;99026.63;4198919;28;20047;-83
2024/02/09 03:38:46;;;;;;;;;;;;;;;2.62;91.78;99032.78;4201069;28;19931;-88
2024/02/09 03:41:08;;;;;;;;;;;;;;;2.62;91.97;99026.63;4189939;28;19931;-88
2024/02/09 03:43:30;;;;;;;;;;;;;;;2.61;92.06;99020.44;4227292;28;19923;-89
2024/02/09 03:45:51;;;;;;;;;;;;;;;2.61;92.12;99016.97;4198842;28;19971;-88
2024/02/09 03:48:11;;;;;;;;;;;;;;;2.60;92.00;99016.16;4196088;28;20402;-88
2024/02/09 03:50:34;;;;;;;;;;;;;;;2.62;92.29;99013.31;4183545;28;19948;-88
2024/02/09 03:52:54;;;;;;;;;;;;;;;2.62;92.09;99019.47;4197363;28;20413;-87
2024/02/09 03:55:16;;;;;;;;;;;;;;;2.61;92.14;99019.63;4198853;28;19975;-88
2024/02/09 03:57:37;;;;;;;;;;;;;;;2.62;92.07;99016.81;4212687;28;20039;-88
2024/02/09 03:59:58;;;;;;;;;;;;;;;2.63;92.36;99017.63;4211554;28;19979;-87
2024/02/09 04:02:19;;;;;;;;;;;;;;;2.63;92.24;99020.28;4212287;28;19970;-89
2024/02/09 04:04:40;;;;;;;;;;;;;;;2.63;92.25;99031.81;4213562;28;19931;-91
2024/02/09 04:07:00;;;;;;;;;;;;;;;2.62;92.51;99024.78;4197999;28;19939;-90
2024/02/09 04:09:22;;;;;;;;;;;;;;;2.62;92.28;99022.13;4195216;28;19998;-92
2024/02/09 04:11:43;;;;;;;;;;;;;;;2.62;92.19;99014.13;4190501;28;19931;-88
2024/02/09 04:14:04;;;;;;;;;;;;;;;2.62;92.05;99005.31;4196614;28;20305;-88
2024/02/09 04:16:26;;;;;;;;;;;;;;;2.62;92.45;99011.47;4182612;28;19932;-86
2024/02/09 04:18:47;;;;;;;;;;;;;;;2.62;92.38;99008.81;4211979;28;19931;-87
2024/02/09 04:21:09;;;;;;;;;;;;;;;2.62;92.24;99007.97;4210014;28;20459;-85
2024/02/09 04:23:30;;;;;;;;;;;;;;;2.62;92.22;99010.66;4211890;28;19935;-89
2024/02/09 04:25:50;;;;;;;;;;;;;;;2.62;92.48;99005.31;4212370;28;20685;-88
2024/02/09 04:28:12;;;;;;;;;;;;;;;2.62;92.65;99007.97;4197284;28;19972;-85
2024/02/09 04:30:33;;;;;;;;;;;;;;;2.62;92.75;99002.66;4200047;28;19937;-90
2024/02/09 04:32:55;;;;;;;;;;;;;;;2.62;92.73;98999.97;4200808;28;20003;-89
2024/02/09 04:35:16;;;;;;;;;;;;;;;2.62;92.86;98990.16;4200913;28;19951;-87
2024/02/09 04:37:37;;;;;;;;;;;;;;;2.61;92.71;98988.47;4200679;28;19932;-89
2024/02/09 04:39:58;;;;;;;;;;;;;;;2.61;92.47;98977.00;4185010;28;19931;-87
2024/02/09 04:42:20;;;;;;;;;;;;;;;2.62;92.62;98971.50;4199534;28;20019;-89
2024/02/09 04:44:42;;;;;;;;;;;;;;;2.61;92.46;98961.00;4213840;28;19983;-88
2024/02/09 04:47:03;;;;;;;;;;;;;;;2.60;92.35;98948.66;4186094;28;19991;-90
2024/02/09 04:49:25;;;;;;;;;;;;;;;2.61;92.63;98950.34;4199822;28;20456;-91
2024/02/09 04:51:47;;;;;;;;;;;;;;;2.61;92.81;98942.34;4215598;28;19970;-90
2024/02/09 04:54:08;;;;;;;;;;;;;;;2.60;92.40;98949.50;4201533;28;19931;-91
2024/02/09 04:56:30;;;;;;;;;;;;;;;2.61;92.41;98935.16;4186225;28;19947;-90
2024/02/09 04:58:52;;;;;;;;;;;;;;;2.61;92.80;98932.50;4200066;28;19932;-91
2024/02/09 05:01:13;;;;;;;;;;;;;;;2.61;92.75;98935.16;4184981;28;19940;-90
2024/02/09 05:03:34;;;;;;;;;;;;;;;2.61;92.72;98923.69;4193472;28;20413;-90
2024/02/09 05:05:57;;;;;;;;;;;;;;;2.61;92.67;98919.16;4200320;28;20011;-91
2024/02/09 05:08:17;;;;;;;;;;;;;;;2.60;92.83;98914.88;4200317;28;20398;-91
2024/02/09 05:10:39;;;;;;;;;;;;;;;2.62;92.74;98907.50;4199805;28;20023;-90
2024/02/09 05:13:02;;;;;;;;;;;;;;;2.61;92.93;98905.03;4184134;28;19996;-88
2024/02/09 05:15:23;;;;;;;;;;;;;;;2.60;92.63;98890.88;4200093;28;19939;-87
2024/02/09 05:17:43;;;;;;;;;;;;;;;2.61;92.73;98897.03;4199426;28;20027;-88
2024/02/09 05:20:05;;;;;;;;;;;;;;;2.61;93.02;98881.84;4199814;28;19935;-88
2024/02/09 05:22:28;;;;;;;;;;;;;;;2.61;92.79;98876.53;4184996;28;20426;-89
2024/02/09 05:24:48;;;;;;;;;;;;;;;2.61;93.14;98879.19;4193353;28;20428;-89
2024/02/09 05:27:10;;;;;;;;;;;;;;;2.61;92.84;98884.53;4199551;28;19931;-88
2024/02/09 05:29:31;;;;;;;;;;;;;;;2.61;92.96;98871.19;4198921;28;19942;-88
2024/02/09 05:31:56;;;;;;;;;;;;;;;2.61;92.83;98875.69;4199802;28;19935;-89
2024/02/09 05:34:17;;;;;;;;;;;;;;;2.61;92.60;98873.84;4186436;28;19975;-83
2024/02/09 05:36:38;;;;;;;;;;;;;;;2.61;92.71;98865.03;4213780;28;20350;-86
2024/02/09 05:39:00;;;;;;;;;;;;;;;2.61;92.65;98870.38;4199823;28;20421;-86
2024/02/09 05:41:21;;;;;;;;;;;;;;;2.61;92.35;98862.38;4212343;28;19970;-89
2024/02/09 05:43:43;;;;;;;;;;;;;;;2.62;92.59;98854.22;4199041;28;19988;-90
2024/02/09 05:46:04;;;;;;;;;;;;;;;2.62;92.33;98853.38;4198120;28;19935;-86
2024/02/09 05:48:24;;;;;;;;;;;;;;;2.63;92.29;98849.69;4199730;28;20015;-90
2024/02/09 05:50:45;;;;;;;;;;;;;;;2.62;92.50;98843.53;4212856;28;19939;-91
2024/02/09 05:53:06;;;;;;;;;;;;;;;2.61;92.49;98844.53;4193120;28;19939;-89
2024/02/09 05:55:27;;;;;;;;;;;;;;;2.61;92.43;98847.22;4199836;28;19931;-90
2024/02/09 05:57:54;;;;;;;;;;;;;;;2.61;92.37;98849.88;4177483;28;19959;-89
2024/02/09 06:00:16;;;;;;;;;;;;;;;2.61;92.92;98838.38;4199116;28;20016;-92
2024/02/09 06:02:37;;;;;;;;;;;;;;;2.61;92.76;98839.22;4197721;28;19977;-91
2024/02/09 06:04:58;;;;;;;;;;;;;;;2.60;93.03;98832.25;4192069;28;20050;-87
2024/02/09 06:07:19;;;;;;;;;;;;;;;2.61;92.62;98830.41;4199330;28;19935;-89
2024/02/09 06:09:40;;;;;;;;;;;;;;;2.61;92.91;98830.41;4196216;28;19936;-93
2024/02/09 06:12:02;;;;;;;;;;;;;;;2.60;93.28;98823.38;4197207;28;20006;-93
2024/02/09 06:14:25;;;;;;;;;;;;;;;2.61;93.05;98825.06;4192464;28;19971;-88
2024/02/09 06:16:47;;;;;;;;;;;;;;;2.61;92.67;98827.72;4198629;28;19932;-89
2024/02/09 06:19:08;;;;;;;;;;;;;;;2.61;92.93;98825.06;4180505;28;20409;-85
2024/02/09 06:21:29;;;;;;;;;;;;;;;2.62;93.14;98818.75;4198251;28;20456;-84
2024/02/09 06:23:51;;;;;;;;;;;;;;;2.60;92.96;98816.25;4213511;28;19935;-84
2024/02/09 06:26:11;;;;;;;;;;;;;;;2.61;92.98;98823.22;4212842;28;19970;-85
2024/02/09 06:28:33;;;;;;;;;;;;;;;2.61;93.21;98822.41;4212546;28;19973;-84
2024/02/09 06:30:55;;;;;;;;;;;;;;;2.62;93.15;98826.72;4198304;28;20381;-83
2024/02/09 06:33:16;;;;;;;;;;;;;;;2.61;93.04;98825.88;4197918;28;20007;-84
2024/02/09 06:35:37;;;;;;;;;;;;;;;2.62;93.53;98835.56;4195761;28;19931;-84
2024/02/09 06:37:58;;;;;;;;;;;;;;;2.61;93.37;98827.72;4211021;28;19930;-84
2024/02/09 06:40:19;;;;;;;;;;;;;;;2.60;93.07;98818.91;4198035;28;19985;-83
2024/02/09 06:42:40;;;;;;;;;;;;;;;2.59;93.33;98825.22;4192613;28;20008;-85
2024/02/09 06:45:03;;;;;;;;;;;;;;;2.60;92.92;98826.06;4212762;28;20019;-86
2024/02/09 06:47:24;;;;;;;;;;;;;;;2.61;93.17;98809.88;4211105;28;19994;-83
2024/02/09 06:49:45;;;;;;;;;;;;;;;2.60;93.41;98810.91;4212867;28;19930;-85
2024/02/09 06:52:06;;;;;;;;;;;;;;;2.61;93.23;98817.88;4182610;28;19959;-84
2024/02/09 06:54:27;;;;;;;;;;;;;;;2.63;93.30;98810.56;4195727;28;19931;-83
2024/02/09 06:56:48;;;;;;;;;;;;;;;2.63;93.25;98810.56;4197147;28;19975;-86
2024/02/09 06:59:10;;;;;;;;;;;;;;;2.64;93.42;98808.72;4210544;28;20405;-87
2024/02/09 07:01:32;;;;;;;;;;;;;;;2.63;93.11;98812.38;4197436;28;20004;-84
2024/02/09 07:03:53;;;;;;;;;;;;;;;2.63;93.30;98802.56;4212899;28;19938;-86
2024/02/09 07:06:14;;;;;;;;;;;;;;;2.63;93.30;98799.91;4212253;28;19971;-86
2024/02/09 07:08:39;;;;;;;;;;;;;;;2.63;93.41;98796.41;4194526;28;19934;-84
2024/02/09 07:11:01;;;;;;;;;;;;;;;2.61;93.66;98791.25;4194372;28;19931;-85
2024/02/09 07:13:21;;;;;;;;;;;;;;;2.63;93.53;98785.72;4193877;28;19931;-86
2024/02/09 07:15:42;;;;;;;;;;;;;;;2.61;93.34;98782.41;4179840;28;19931;-85
2024/02/09 07:18:05;;;;;;;;;;;;;;;2.62;93.32;98782.25;4194086;28;19931;-85
2024/02/09 07:20:26;;;;;;;;;;;;;;;2.62;93.45;98784.09;4194074;28;19931;-84
2024/02/09 07:22:47;;;;;;;;;;;;;;;2.63;93.67;98785.72;4193795;28;20055;-84
2024/02/09 07:25:08;;;;;;;;;;;;;;;2.63;94.04;98791.91;4194454;28;19947;-84
2024/02/09 07:27:29;;;;;;;;;;;;;;;2.64;93.97;98787.41;4189545;28;19938;-86
2024/02/09 07:29:50;;;;;;;;;;;;;;;2.63;93.67;98783.91;4189494;28;19952;-83
2024/02/09 07:32:11;;;;;;;;;;;;;;;2.64;93.86;98779.41;4196459;28;20386;-87
2024/02/09 08:02:33;;;;;;;;;;;;;;;2.67;94.57;98757.72;4203261;28;19916;-87
2024/02/09 08:04:55;;;;;;;;;;;;;;;2.67;94.35;98761.22;4205419;28;19939;-84
2024/02/09 08:07:19;;;;;;;;;;;;;;;2.67;94.07;98755.88;4188956;28;20310;-82
2024/02/09 08:09:40;;;;;;;;;;;;;;;2.68;94.28;98760.22;4186685;28;19934;-84
2024/02/09 08:12:01;;;;;;;;;;;;;;;2.70;94.60;98752.06;4166942;28;19939;-85
2024/02/09 08:14:22;;;;;;;;;;;;;;;2.70;94.78;98752.06;4193656;28;19976;-85
2024/02/09 08:16:44;;;;;;;;;;;;;;;2.70;94.67;98752.88;4182069;28;19932;-83
2024/02/09 08:19:06;;;;;;;;;;;;;;;2.70;94.79;98749.38;4181841;28;19983;-87
2024/02/09 08:21:30;;;;;;;;;;;;;;;2.72;94.96;98744.69;4177019;28;20019;-87
2024/02/09 08:23:51;;;;;;;;;;;;;;;2.72;95.01;98744.69;4181962;28;19936;-85
2024/02/09 08:26:11;;;;;;;;;;;;;;;2.72;94.95;98739.38;4182413;28;20591;-85
2024/02/09 08:28:33;;;;;;;;;;;;;;;2.72;94.95;98736.72;4189845;28;20330;-84
2024/02/09 08:30:53;;;;;;;;;;;;;;;2.72;94.77;98741.22;4189011;28;19947;-86
2024/02/09 08:33:13;;;;;;;;;;;;;;;2.72;94.83;98734.03;4172497;28;20387;-84
2024/02/09 08:35:34;;;;;;;;;;;;;;;2.73;94.73;98732.19;4187837;28;20444;-84
2024/02/09 08:37:58;;;;;;;;;;;;;;;2.73;94.66;98737.53;4186871;28;20095;-87
2024/02/09 08:40:18;;;;;;;;;;;;;;;2.75;95.13;98727.53;4187447;28;19995;-86
2024/02/09 12:50:52;;;;;;;;;;;;;;;3.81;92.35;98580.78;4190423;28;19928;-86
2024/02/09 12:53:14;;;;;;;;;;;;;;;3.83;92.22;98592.13;4191730;28;19978;-90
2024/02/09 12:55:35;;;;;;;;;;;;;;;3.83;92.01;98590.28;4168223;28;19940;-89
2024/02/09 12:57:56;;;;;;;;;;;;;;;3.86;91.91;98583.75;4181231;28;19971;-89
2024/02/09 13:00:17;;;;;;;;;;;;;;;3.87;91.76;98580.06;4194296;28;19930;-85
2024/02/09 13:02:39;;;;;;;;;;;;;;;3.88;91.41;98581.72;4195341;28;19998;-88
2024/02/09 13:05:00;;;;;;;;;;;;;;;3.90;91.77;98577.84;4188409;28;20011;-87
2024/02/09 13:07:22;;;;;;;;;;;;;;;3.90;91.60;98569.84;4182520;28;19971;-86
2024/02/09 13:09:43;;;;;;;;;;;;;;;3.92;91.85;98573.16;4193772;28;19979;-88
2024/02/09 13:12:06;;;;;;;;;;;;;;;3.92;91.89;98569.66;4193507;28;19975;-87
2024/02/09 13:14:27;;;;;;;;;;;;;;;3.93;91.81;98561.47;4194525;28;20275;-89
2024/02/09 13:16:48;;;;;;;;;;;;;;;3.94;92.08;98568.44;4192515;28;20339;-86
2024/02/09 13:19:11;;;;;;;;;;;;;;;3.95;92.35;98559.41;4195517;28;20031;-88
2024/02/09 13:21:31;;;;;;;;;;;;;;;3.96;92.02;98563.72;4193767;28;19947;-87
2024/02/09 13:23:53;;;;;;;;;;;;;;;3.97;91.96;98561.91;4194443;28;19935;-86
2024/02/09 13:26:15;;;;;;;;;;;;;;;3.97;91.99;98562.72;4193787;28;20447;-85
2024/02/09 13:28:38;;;;;;;;;;;;;;;3.99;91.72;98556.38;4194168;28;19931;-88
2024/02/09 13:31:00;;;;;;;;;;;;;;;3.99;91.39;98557.19;4210014;28;20896;-86
2024/02/09 13:33:21;;;;;;;;;;;;;;;3.99;91.38;98559.84;4195154;28;19979;-86
2024/02/09 13:35:41;;;;;;;;;;;;;;;3.99;90.97;98559.84;4197408;28;19932;-86
2024/02/09 13:38:02;;;;;;;;;;;;;;;4.01;91.15;98557.81;4196114;28;19970;-85
2024/02/09 13:40:24;;;;;;;;;;;;;;;4.03;91.12;98554.97;4194813;28;19931;-84
2024/02/09 13:42:47;;;;;;;;;;;;;;;4.03;90.68;98562.97;4196078;28;19978;-83
2024/02/09 13:45:09;;;;;;;;;;;;;;;4.03;91.13;98557.63;4210505;28;20039;-84
2024/02/09 13:47:31;;;;;;;;;;;;;;;4.04;91.22;98551.28;4196884;28;19973;-85
2024/02/09 13:49:51;;;;;;;;;;;;;;;4.04;91.48;98554.78;4199272;28;19935;-85
2024/02/09 13:52:12;;;;;;;;;;;;;;;4.06;91.47;98557.25;4212602;28;19934;-85
2024/02/09 13:54:32;;;;;;;;;;;;;;;4.05;91.21;98547.59;4197446;28;19955;-83
2024/02/09 13:56:54;;;;;;;;;;;;;;;4.06;91.08;98549.25;4209865;28;19974;-83
2024/02/09 13:59:16;;;;;;;;;;;;;;;4.06;90.60;98544.75;4213671;28;19978;-87
2024/02/09 14:01:36;;;;;;;;;;;;;;;4.06;90.63;98539.41;4198500;28;20448;-84
2024/02/09 14:03:57;;;;;;;;;;;;;;;4.07;90.56;98551.72;4183060;28;19978;-84
2024/02/09 14:06:18;;;;;;;;;;;;;;;4.09;89.84;98548.88;4212091;28;19948;-84
2024/02/09 14:08:39;;;;;;;;;;;;;;;4.10;90.08;98542.50;4212814;28;19930;-85
2024/02/09 14:10:59;;;;;;;;;;;;;;;4.07;89.54;98534.88;4211852;28;20393;-83
2024/02/09 14:13:21;;;;;;;;;;;;;;;4.12;89.82;98545.81;4212491;28;20027;-86
2024/02/09 14:15:48;;;;;;;;;;;;;;;4.14;89.56;98541.13;4213195;28;19958;-85
2024/02/09 14:18:09;;;;;;;;;;;;;;;4.14;89.57;98533.13;4199824;28;19930;-87
2024/02/09 14:20:30;;;;;;;;;;;;;;;4.14;89.35;98539.28;4194439;28;19932;-84
2024/02/09 14:22:51;;;;;;;;;;;;;;;4.14;89.74;98528.59;4210349;28;19973;-86
2024/02/09 14:25:15;;;;;;;;;;;;;;;4.15;89.50;98532.06;4212444;28;19931;-84
2024/02/09 14:27:42;;;;;;;;;;;;;;;4.16;89.81;98523.06;4214593;28;19931;-86
2024/02/09 14:30:05;;;;;;;;;;;;;;;4.17;89.38;98535.41;4213178;28;19934;-88
2024/02/09 14:32:27;;;;;;;;;;;;;;;4.17;89.53;98546.09;4198331;28;19935;-85
2024/02/09 14:34:48;;;;;;;;;;;;;;;4.17;89.25;98535.41;4213530;28;19931;-84
2024/02/09 14:37:12;;;;;;;;;;;;;;;4.18;89.70;98534.38;4211455;28;19931;-86
2024/02/09 14:39:33;;;;;;;;;;;;;;;4.18;89.43;98531.69;4211814;28;19974;-85
2024/02/09 14:41:56;;;;;;;;;;;;;;;4.21;89.78;98530.50;4210488;28;20337;-85
2024/02/09 14:44:17;;;;;;;;;;;;;;;4.20;89.67;98531.50;4212032;28;20341;-83
2024/02/09 14:46:43;;;;;;;;;;;;;;;4.21;89.73;98542.00;4211671;28;19935;-83
2024/02/09 14:49:03;;;;;;;;;;;;;;;4.21;89.47;98544.69;4211469;28;19930;-83
2024/02/09 14:51:25;;;;;;;;;;;;;;;4.22;89.60;98541.00;4209657;28;19931;-84
2024/02/09 14:53:47;;;;;;;;;;;;;;;4.20;89.25;98532.34;4197115;28;20424;-84
2024/02/09 14:56:09;;;;;;;;;;;;;;;4.23;88.76;98542.66;4196518;28;20349;-84
2024/02/09 14:58:30;;;;;;;;;;;;;;;4.24;89.02;98536.28;4208660;28;19931;-81
2024/02/09 15:00:55;;;;;;;;;;;;;;;4.24;88.83;98538.97;4181533;28;20008;-83
2024/02/09 15:03:17;;;;;;;;;;;;;;;4.26;88.63;98539.63;4197888;28;19962;-87
2024/02/09 15:05:44;;;;;;;;;;;;;;;4.27;88.69;98535.09;4212698;28;19983;-90
2024/02/09 15:08:07;;;;;;;;;;;;;;;4.27;88.32;98532.41;4199090;28;19965;-88
2024/02/09 15:10:29;;;;;;;;;;;;;;;4.28;88.56;98536.75;4196487;28;20495;-87
2024/02/09 15:12:49;;;;;;;;;;;;;;;4.27;88.38;98530.56;4210510;28;20040;-87
2024/02/09 15:15:10;;;;;;;;;;;;;;;4.28;89.23;98531.41;4212010;28;19947;-84
2024/02/09 15:17:31;;;;;;;;;;;;;;;4.29;89.21;98533.03;4196697;28;20016;-83
2024/02/09 15:19:54;;;;;;;;;;;;;;;4.29;89.00;98522.34;4210632;28;20443;-84
2024/02/09 15:22:15;;;;;;;;;;;;;;;4.30;88.77;98516.00;4189266;28;20004;-84
2024/02/09 15:24:37;;;;;;;;;;;;;;;4.31;88.68;98517.63;4197116;28;19932;-85
2024/02/09 15:26:58;;;;;;;;;;;;;;;4.30;88.78;98524.84;4211240;28;19939;-84
2024/02/09 15:29:19;;;;;;;;;;;;;;;4.31;88.96;98523.81;4210702;28;20463;-84
2024/02/09 15:31:40;;;;;;;;;;;;;;;4.31;88.86;98518.50;4211682;28;20021;-83
2024/02/09 15:34:00;;;;;;;;;;;;;;;4.35;88.42;98520.78;4209074;28;21022;-84
2024/02/09 15:36:23;;;;;;;;;;;;;;;4.33;88.48;98513.75;4211461;28;19931;-84
2024/02/09 15:38:46;;;;;;;;;;;;;;;4.34;88.56;98517.25;4196411;28;19930;-84
2024/02/09 15:41:11;;;;;;;;;;;;;;;4.35;88.73;98520.78;4210405;28;19977;-84
2024/02/09 15:43:31;;;;;;;;;;;;;;;4.35;88.96;98512.75;4182767;28;19986;-87
2024/02/09 15:46:01;;;;;;;;;;;;;;;4.35;88.87;98518.09;4211198;28;19938;-85
2024/02/09 15:48:25;;;;;;;;;;;;;;;4.35;88.93;98510.09;4207524;28;20270;-85
2024/02/09 15:50:45;;;;;;;;;;;;;;;4.38;88.92;98517.72;4187432;28;20350;-87
2024/02/09 15:53:08;;;;;;;;;;;;;;;4.37;88.92;98513.38;4196174;28;19948;-88
2024/02/09 15:55:31;;;;;;;;;;;;;;;4.37;88.50;98508.84;4197965;28;19966;-85
2024/02/09 15:57:52;;;;;;;;;;;;;;;4.39;88.70;98519.34;4195281;28;19930;-85
2024/02/09 16:00:17;;;;;;;;;;;;;;;4.38;88.76;98520.41;4194533;28;20011;-84
2024/02/09 16:02:42;;;;;;;;;;;;;;;4.39;88.95;98516.69;4196672;28;20456;-85
2024/02/09 16:05:10;;;;;;;;;;;;;;;4.39;89.02;98517.53;4196365;28;20001;-86
2024/02/09 16:07:31;;;;;;;;;;;;;;;4.40;89.10;98513.00;4195998;28;19991;-86
2024/02/09 16:09:54;;;;;;;;;;;;;;;4.41;88.93;98515.47;4209610;28;19970;-86
2024/02/09 16:12:14;;;;;;;;;;;;;;;4.41;89.00;98510.13;4210599;28;20286;-86
2024/02/09 16:14:42;;;;;;;;;;;;;;;4.42;88.90;98517.16;4209904;28;19935;-84
2024/02/09 16:17:04;;;;;;;;;;;;;;;4.42;89.09;98516.31;4197135;28;20014;-89
2024/02/09 16:19:25;;;;;;;;;;;;;;;4.42;89.42;98502.94;4197801;28;19931;-87
2024/02/09 16:21:46;;;;;;;;;;;;;;;4.41;89.13;98502.13;4212113;28;19977;-86
2024/02/09 16:24:09;;;;;;;;;;;;;;;4.43;89.40;98510.75;4211982;28;19966;-86
2024/02/09 16:26:31;;;;;;;;;;;;;;;4.43;89.08;98513.44;4199822;28;20290;-86
2024/02/09 16:28:56;;;;;;;;;;;;;;;4.45;89.01;98510.56;4200177;28;19943;-86
2024/02/09 16:31:19;;;;;;;;;;;;;;;4.44;89.03;98514.28;4186928;28;19936;-88
2024/02/09 16:33:45;;;;;;;;;;;;;;;4.46;89.32;98512.25;4200109;28;19983;-88
2024/02/09 16:36:06;;;;;;;;;;;;;;;4.47;89.30;98513.91;4199455;28;20381;-86
2024/02/09 16:38:27;;;;;;;;;;;;;;;4.46;89.25;98506.88;4200815;28;20030;-89
2024/02/09 16:40:48;;;;;;;;;;;;;;;4.46;89.48;98512.25;4214194;28;19963;-86
2024/02/09 16:43:14;;;;;;;;;;;;;;;4.47;89.28;98513.91;4199332;28;19967;-86
2024/02/09 16:45:36;;;;;;;;;;;;;;;4.48;88.77;98519.06;4212139;28;20017;-84
2024/02/09 16:47:56;;;;;;;;;;;;;;;4.49;88.61;98525.22;4199694;28;19974;-86
2024/02/09 16:50:17;;;;;;;;;;;;;;;4.49;88.76;98527.91;4198342;28;19935;-86
2024/02/09 16:52:39;;;;;;;;;;;;;;;4.49;89.05;98520.69;4199089;28;19935;-86
2024/02/09 16:55:03;;;;;;;;;;;;;;;4.51;88.97;98525.84;4198594;28;19938;-85
2024/02/09 16:57:23;;;;;;;;;;;;;;;4.51;89.08;98523.16;4191773;28;20835;-87
2024/02/09 16:59:48;;;;;;;;;;;;;;;4.49;89.25;98520.69;4183952;28;20037;-86
2024/02/09 17:02:09;;;;;;;;;;;;;;;4.52;89.13;98524.84;4214159;28;20278;-85
2024/02/09 17:04:28;;;;;;;;;;;;;;;4.51;89.53;98526.69;4212779;28;19986;-87
2024/02/09 17:06:49;;;;;;;;;;;;;;;4.52;89.66;98519.50;4198135;28;20853;-86
2024/02/09 17:09:12;;;;;;;;;;;;;;;4.53;89.43;98523.81;4184540;28;19975;-84
2024/02/09 17:11:33;;;;;;;;;;;;;;;4.53;89.81;98529.19;4212961;28;19950;-86
2024/02/09 17:13:54;;;;;;;;;;;;;;;4.54;89.48;98519.28;4212823;28;19934;-86
2024/02/09 17:16:18;;;;;;;;;;;;;;;4.55;89.64;98520.97;4192149;28;19932;-86
2024/02/09 17:18:39;;;;;;;;;;;;;;;4.55;89.66;98520.97;4213965;28;20295;-86
2024/02/09 17:21:00;;;;;;;;;;;;;;;4.55;89.44;98519.09;4212866;28;19939;-85
2024/02/09 17:23:20;;;;;;;;;;;;;;;4.55;89.91;98516.44;4199146;28;19931;-86
2024/02/09 17:25:41;;;;;;;;;;;;;;;4.56;89.80;98515.41;4194917;28;19931;-91
2024/02/09 17:28:06;;;;;;;;;;;;;;;4.56;89.60;98515.41;4191910;28;20303;-86
2024/02/09 17:30:26;;;;;;;;;;;;;;;4.60;89.24;98513.19;4213249;28;19931;-88
2024/02/09 17:32:48;;;;;;;;;;;;;;;4.61;89.27;98526.34;4197885;28;19935;-86
2024/02/09 17:35:09;;;;;;;;;;;;;;;4.63;89.33;98523.50;4192310;28;19934;-88
2024/02/09 17:37:30;;;;;;;;;;;;;;;4.64;89.12;98525.13;4197781;28;19943;-88
2024/02/09 17:39:51;;;;;;;;;;;;;;;4.65;88.86;98518.75;4192198;28;20572;-89
2024/02/09 17:42:13;;;;;;;;;;;;;;;4.65;88.85;98524.94;4212267;28;20367;-88
2024/02/09 17:44:34;;;;;;;;;;;;;;;4.66;88.97;98529.28;4184523;28;20343;-90
2024/02/09 17:46:57;;;;;;;;;;;;;;;4.67;88.89;98527.41;4182621;28;19935;-88
2024/02/09 17:49:22;;;;;;;;;;;;;;;4.67;88.91;98527.41;4183526;28;19973;-91
2024/02/09 17:51:43;;;;;;;;;;;;;;;4.67;89.06;98530.94;4213033;28;19970;-90
2024/02/09 17:54:04;;;;;;;;;;;;;;;4.67;89.01;98528.25;4185351;28;19978;-88
2024/02/09 17:56:27;;;;;;;;;;;;;;;4.66;89.29;98536.47;4196481;28;20454;-94
2024/02/09 17:58:47;;;;;;;;;;;;;;;4.67;89.44;98530.94;4185984;28;20024;-94
2024/02/09 18:01:08;;;;;;;;;;;;;;;4.67;89.22;98536.28;4197066;28;19975;-93
2024/02/09 18:03:29;;;;;;;;;;;;;;;4.68;89.38;98531.75;4183546;28;20016;-91
2024/02/09 18:05:51;;;;;;;;;;;;;;;4.68;89.28;98534.44;4197907;28;19959;-92
2024/02/09 18:08:12;;;;;;;;;;;;;;;4.69;89.26;98536.09;4213260;28;19981;-93
2024/02/09 18:10:33;;;;;;;;;;;;;;;4.68;88.93;98537.91;4184043;28;19932;-90
2024/02/09 18:12:54;;;;;;;;;;;;;;;4.71;88.95;98541.25;4199340;28;19932;-92
2024/02/09 18:15:14;;;;;;;;;;;;;;;4.71;89.13;98534.03;4212379;28;19930;-88
2024/02/09 18:17:37;;;;;;;;;;;;;;;4.74;89.20;98535.50;4211558;28;19931;-91
2024/02/09 18:20:00;;;;;;;;;;;;;;;4.75;89.23;98537.16;4183155;28;20451;-88
2024/02/09 18:22:22;;;;;;;;;;;;;;;4.75;89.24;98535.31;4196606;28;19931;-88
2024/02/09 18:24:44;;;;;;;;;;;;;;;4.74;89.29;98527.50;4200289;28;20007;-93
2024/02/09 18:27:05;;;;;;;;;;;;;;;4.74;89.43;98530.16;4184828;28;19954;-88
2024/02/09 18:29:25;;;;;;;;;;;;;;;4.74;89.40;98536.31;4197174;28;19959;-89
2024/02/09 18:31:46;;;;;;;;;;;;;;;4.75;89.55;98539.81;4197320;28;19958;-90
2024/02/09 18:34:09;;;;;;;;;;;;;;;4.76;89.22;98536.13;4183999;28;20410;-92
2024/02/09 18:36:30;;;;;;;;;;;;;;;4.76;89.18;98536.94;4196843;28;19940;-90
2024/02/09 18:38:57;;;;;;;;;;;;;;;4.77;89.50;98535.13;4197266;28;20385;-91
2024/02/09 18:41:18;;;;;;;;;;;;;;;4.77;89.24;98540.47;4195978;28;19932;-89
2024/02/09 18:43:39;;;;;;;;;;;;;;;4.77;89.19;98535.13;4197369;28;19979;-88
2024/02/09 18:46:00;;;;;;;;;;;;;;;4.77;89.23;98541.28;4189941;28;20365;-87
2024/02/09 18:48:21;;;;;;;;;;;;;;;4.79;89.37;98538.44;4211950;28;19931;-86
2024/02/09 18:50:43;;;;;;;;;;;;;;;4.79;89.25;98535.75;4183623;28;19940;-88
2024/02/09 18:53:07;;;;;;;;;;;;;;;4.79;89.34;98531.22;4196015;28;19981;-87